Time;durP1;ratioP1;P1;durP2;ratioP2;P2;SDS_P1;SDS_P2;PMS_P1;PMS_P2;Temp;Humidity;BMP_temperature;BMP_pressure;BME280_temperature;BME280_humidity;BME280_pressure;Samples;Min_cycle;Max_cycle;Signal;HPM_P1;HPM_P2
2024/03/03 00:00:47;;;;;;;29.30;16.10;;;;;;;6.05;77.96;98676.98;105598;1256;96600;-79
2024/03/03 00:03:35;;;;;;;28.50;16.50;;;;;;;5.97;77.78;98677.42;105441;1257;96626;-80
2024/03/03 00:06:06;;;;;;;29.50;17.50;;;;;;;5.89;77.73;98677.73;105764;1257;109920;-79
2024/03/03 00:08:35;;;;;;;31.40;16.90;;;;;;;5.84;77.78;98676.41;105509;1258;96596;-80
2024/03/03 00:11:04;;;;;;;25.60;15.70;;;;;;;5.84;77.93;98676.98;105416;1254;107693;-80
2024/03/03 00:13:33;;;;;;;33.70;16.90;;;;;;;5.82;78.05;98674.08;105597;1256;96612;-79
2024/03/03 00:16:04;;;;;;;36.30;17.90;;;;;;;5.83;77.99;98672.42;105400;1254;97423;-74
2024/03/03 00:18:37;;;;;;;25.40;15.30;;;;;;;5.82;77.83;98667.90;105693;1257;109905;-81
2024/03/03 00:21:13;;;;;;;35.80;17.90;;;;;;;5.76;77.73;98667.92;105280;1254;96596;-80
2024/03/03 00:23:42;;;;;;;24.90;15.30;;;;;;;5.74;77.95;98661.83;105310;1254;107445;-80
2024/03/03 00:26:09;;;;;;;28.90;15.60;;;;;;;5.75;77.93;98660.42;105501;1257;97522;-80
2024/03/03 00:28:38;;;;;;;24.70;13.90;;;;;;;5.70;77.92;98662.27;105377;1258;96562;-77
2024/03/03 00:31:06;;;;;;;28.80;15.30;;;;;;;5.66;77.89;98659.37;105551;1254;109900;-79
2024/03/03 00:33:34;;;;;;;29.10;16.00;;;;;;;5.68;78.20;98660.51;106129;1264;97146;-75
2024/03/03 00:36:05;;;;;;;33.00;16.50;;;;;;;5.66;77.92;98657.58;105565;1267;105969;-80
2024/03/03 00:38:34;;;;;;;34.00;18.60;;;;;;;5.61;77.77;98657.17;105278;1254;97528;-81
2024/03/03 00:41:06;;;;;;;32.40;17.10;;;;;;;5.56;77.96;98660.11;105696;1254;96642;-80
2024/03/03 00:43:35;;;;;;;27.40;17.50;;;;;;;5.55;77.92;98658.06;105630;1257;109464;-80
2024/03/03 00:46:04;;;;;;;30.60;15.20;;;;;;;5.57;77.94;98656.73;105621;1257;96571;-80
2024/03/03 00:48:32;;;;;;;28.20;15.40;;;;;;;5.58;77.99;98654.17;105628;1266;106618;-79
2024/03/03 00:51:00;;;;;;;30.80;15.70;;;;;;;5.59;77.86;98650.23;105584;1254;96589;-80
2024/03/03 00:53:27;;;;;;;29.60;16.30;;;;;;;5.60;77.90;98651.95;105472;1256;96816;-80
2024/03/03 00:55:55;;;;;;;23.50;14.70;;;;;;;5.62;77.94;98649.39;105720;1259;108314;-78
2024/03/03 00:58:23;;;;;;;26.00;14.50;;;;;;;5.62;78.09;98651.86;105600;1257;96590;-80
2024/03/03 01:00:51;;;;;;;25.10;14.50;;;;;;;5.63;78.09;98646.30;105588;1252;107116;-78
2024/03/03 01:03:19;;;;;;;29.20;16.00;;;;;;;5.64;77.95;98644.88;105364;1257;97816;-80
2024/03/03 01:05:47;;;;;;;27.10;16.20;;;;;;;5.65;77.99;98644.11;105546;1253;96506;-80
2024/03/03 01:08:15;;;;;;;25.70;14.50;;;;;;;5.64;77.97;98641.70;105462;1254;109902;-76
2024/03/03 01:10:43;;;;;;;28.60;15.90;;;;;;;5.64;78.14;98642.79;105265;1259;96559;-81
2024/03/03 01:13:11;;;;;;;29.30;15.90;;;;;;;5.64;77.96;98641.84;105371;1257;107329;-79
2024/03/03 01:15:39;;;;;;;25.00;15.50;;;;;;;5.60;77.77;98641.04;105532;1254;96613;-80
2024/03/03 01:18:07;;;;;;;26.80;14.50;;;;;;;5.57;77.98;98635.42;105407;1254;97133;-79
2024/03/03 01:20:34;;;;;;;27.00;15.80;;;;;;;5.58;78.09;98634.50;105089;1258;109894;-76
2024/03/03 01:23:02;;;;;;;26.30;14.60;;;;;;;5.60;77.90;98633.99;105298;1253;96623;-76
2024/03/03 01:25:30;;;;;;;28.30;15.10;;;;;;;5.61;78.03;98630.96;105404;1259;107738;-80
2024/03/03 01:27:58;;;;;;;23.40;15.10;;;;;;;5.60;77.94;98628.58;105500;1257;96686;-80
2024/03/03 01:30:26;;;;;;;27.90;16.40;;;;;;;5.60;77.96;98625.40;105232;1254;96590;-81
2024/03/03 01:32:54;;;;;;;24.90;14.70;;;;;;;5.62;77.81;98628.08;105387;1254;109480;-80
2024/03/03 01:35:22;;;;;;;28.80;15.30;;;;;;;5.64;77.93;98625.70;105356;1255;97199;-78
2024/03/03 01:37:49;;;;;;;26.60;15.20;;;;;;;5.64;78.06;98623.37;105126;1257;107289;-81
2024/03/03 01:40:17;;;;;;;26.90;16.10;;;;;;;5.67;77.89;98625.84;105313;1261;96560;-78
2024/03/03 01:42:45;;;;;;;27.40;15.30;;;;;;;5.70;78.12;98622.17;105377;1257;97940;-80
2024/03/03 01:45:24;;;;;;;26.50;15.40;;;;;;;5.72;77.97;98623.98;105375;1254;109932;-80
2024/03/03 01:47:52;;;;;;;;;;;;;;;5.74;78.08;98623.02;105258;1257;96589;-80
2024/03/03 01:50:22;;;;;;;26.10;15.00;;;;;;;5.73;77.99;98625.30;105453;1257;107641;-75
2024/03/03 01:52:51;;;;;;;26.00;15.60;;;;;;;5.74;78.14;98623.30;105491;1258;96597;-79
2024/03/03 01:55:22;;;;;;;27.90;14.50;;;;;;;5.76;78.14;98627.96;105264;1253;96672;-78
2024/03/03 01:57:52;;;;;;;28.70;16.10;;;;;;;5.76;78.03;98623.71;105298;1259;109909;-80
2024/03/03 02:00:21;;;;;;;27.30;15.20;;;;;;;5.77;77.94;98627.37;105405;1258;97390;-74
2024/03/03 02:02:49;;;;;;;27.90;15.50;;;;;;;5.78;78.03;98624.18;105310;1257;108101;-81
2024/03/03 02:05:18;;;;;;;26.80;14.90;;;;;;;5.75;77.78;98624.30;105478;1257;96638;-80
2024/03/03 02:07:46;;;;;;;26.60;15.90;;;;;;;5.74;77.89;98625.23;105169;1253;96539;-80
2024/03/03 02:10:15;;;;;;;28.20;15.10;;;;;;;5.73;77.92;98625.52;105512;1257;110104;-79
2024/03/03 02:12:48;;;;;;;26.40;15.30;;;;;;;5.72;77.77;98626.64;105413;1254;96641;-80
2024/03/03 02:15:16;;;;;;;24.20;14.80;;;;;;;5.72;77.78;98626.66;105628;1256;108065;-80
2024/03/03 02:17:44;;;;;;;27.20;15.60;;;;;;;5.72;77.95;98625.41;105536;1254;96622;-80
2024/03/03 02:20:12;;;;;;;32.10;15.70;;;;;;;5.72;77.96;98625.75;105520;1256;96628;-76
2024/03/03 02:22:40;;;;;;;27.10;14.30;;;;;;;5.73;77.87;98620.05;105429;1257;108837;-79
2024/03/03 02:25:09;;;;;;;27.80;15.00;;;;;;;5.70;77.69;98621.30;105722;1256;96593;-79
2024/03/03 02:27:38;;;;;;;26.30;15.30;;;;;;;5.66;77.71;98615.02;105595;1259;107623;-79
2024/03/03 02:30:08;;;;;;;29.80;15.20;;;;;;;5.62;77.76;98614.92;105633;1257;96616;-82
2024/03/03 02:32:35;;;;;;;28.10;14.20;;;;;;;5.59;77.68;98612.95;105437;1257;96591;-80
2024/03/03 02:35:03;;;;;;;26.10;15.00;;;;;;;5.56;77.81;98617.02;105273;1257;109466;-76
2024/03/03 02:37:31;;;;;;;26.10;15.20;;;;;;;5.53;77.76;98614.95;105374;1256;96628;-79
2024/03/03 02:39:59;;;;;;;27.10;15.20;;;;;;;5.47;77.66;98612.78;105523;1254;107712;-78
2024/03/03 02:42:27;;;;;;;24.50;14.30;;;;;;;5.41;77.64;98612.95;105572;1254;97781;-80
2024/03/03 02:44:55;;;;;;;24.40;13.70;;;;;;;5.35;77.52;98609.61;105503;1254;96509;-79
2024/03/03 02:47:23;;;;;;;25.80;14.40;;;;;;;5.28;77.53;98610.77;105587;1257;109938;-79
2024/03/03 02:49:50;;;;;;;26.50;14.70;;;;;;;5.22;77.58;98608.95;105670;1256;96570;-79
2024/03/03 02:52:18;;;;;;;26.00;14.30;;;;;;;5.18;77.58;98611.80;105533;1254;108370;-79
2024/03/03 02:54:46;;;;;;;28.00;15.60;;;;;;;5.16;77.69;98608.41;105361;1254;96594;-79
2024/03/03 02:57:14;;;;;;;25.20;14.40;;;;;;;5.14;77.59;98609.44;105553;1253;96513;-80
2024/03/03 02:59:42;;;;;;;27.80;15.60;;;;;;;5.09;77.49;98611.65;105290;1254;109881;-79
2024/03/03 03:02:09;;;;;;;27.40;15.60;;;;;;;5.04;77.39;98609.45;105842;1253;96605;-80
2024/03/03 03:04:37;;;;;;;28.90;16.10;;;;;;;4.99;77.42;98606.96;105450;1269;107525;-80
2024/03/03 03:07:05;;;;;;;23.70;13.50;;;;;;;4.95;77.54;98606.61;105918;1256;96546;-80
2024/03/03 03:09:33;;;;;;;28.40;15.20;;;;;;;4.93;77.46;98605.69;105572;1259;96594;-78
2024/03/03 03:12:01;;;;;;;22.70;14.40;;;;;;;4.89;77.55;98605.20;105527;1254;109996;-79
2024/03/03 03:14:29;;;;;;;25.40;14.30;;;;;;;4.85;77.48;98609.48;105609;1257;96607;-80
2024/03/03 03:16:58;;;;;;;27.00;13.30;;;;;;;4.83;77.51;98611.54;105234;1256;107697;-80
2024/03/03 03:19:29;;;;;;;27.10;15.00;;;;;;;4.81;77.70;98609.16;105447;1257;96588;-79
2024/03/03 03:21:58;;;;;;;22.10;13.50;;;;;;;4.78;77.52;98606.16;105456;1255;96490;-80
2024/03/03 03:24:26;;;;;;;26.80;14.60;;;;;;;4.75;77.53;98609.35;105566;1254;109864;-78
2024/03/03 03:26:54;;;;;;;21.20;13.60;;;;;;;4.72;77.42;98608.25;105277;1256;96524;-79
2024/03/03 03:29:22;;;;;;;28.20;14.30;;;;;;;4.69;77.36;98608.27;105436;1258;106843;-79
2024/03/03 03:31:50;;;;;;;28.80;15.60;;;;;;;4.62;77.36;98611.98;105630;1254;97403;-80
2024/03/03 03:34:18;;;;;;;31.10;15.80;;;;;;;4.57;77.45;98615.80;105287;1258;96629;-79
2024/03/03 03:36:46;;;;;;;26.30;14.80;;;;;;;4.56;77.55;98615.27;105374;1257;110672;-78
2024/03/03 03:39:14;;;;;;;28.40;15.10;;;;;;;4.55;77.42;98616.73;105910;1256;96513;-81
2024/03/03 03:41:47;;;;;;;26.60;14.50;;;;;;;4.54;77.62;98616.79;105498;1264;108199;-78
2024/03/03 03:44:18;;;;;;;32.60;15.40;;;;;;;4.54;77.46;98619.98;105695;1253;96608;-80
2024/03/03 03:46:46;;;;;;;28.00;15.10;;;;;;;4.51;77.44;98622.94;105513;1256;96600;-80
2024/03/03 03:49:14;;;;;;;23.00;14.10;;;;;;;4.49;77.45;98622.19;105720;1256;109555;-75
2024/03/03 03:51:43;;;;;;;28.20;15.70;;;;;;;4.47;77.30;98623.36;105524;1260;96516;-79
2024/03/03 03:54:11;;;;;;;25.00;14.60;;;;;;;4.44;77.32;98621.02;105599;1256;107176;-79
2024/03/03 03:56:39;;;;;;;27.20;15.50;;;;;;;4.41;77.37;98616.48;105589;1257;96676;-79
2024/03/03 03:59:07;;;;;;;22.70;13.50;;;;;;;4.38;77.39;98621.19;105592;1253;96568;-80
2024/03/03 04:01:34;;;;;;;25.50;13.70;;;;;;;4.35;77.16;98621.56;105300;1256;109727;-79
2024/03/03 04:04:04;;;;;;;26.70;14.80;;;;;;;4.31;77.36;98620.86;105423;1256;96681;-80
2024/03/03 04:06:32;;;;;;;26.50;15.60;;;;;;;4.25;77.22;98616.10;105431;1254;107401;-79
2024/03/03 04:09:03;;;;;;;31.50;15.90;;;;;;;4.20;77.35;98617.79;105532;1253;97813;-78
2024/03/03 04:11:30;;;;;;;27.90;14.50;;;;;;;4.16;77.27;98613.41;105327;1259;97448;-80
2024/03/03 04:13:58;;;;;;;27.90;14.30;;;;;;;4.12;77.13;98611.85;105427;1254;109926;-80
2024/03/03 04:16:26;;;;;;;29.70;16.20;;;;;;;4.08;77.24;98615.75;105547;1256;96569;-80
2024/03/03 04:18:54;;;;;;;25.40;13.70;;;;;;;4.06;77.25;98616.08;105690;1253;107535;-82
2024/03/03 04:21:22;;;;;;;24.50;14.80;;;;;;;4.01;77.19;98614.40;105627;1257;96587;-78
2024/03/03 04:23:50;;;;;;;27.40;15.70;;;;;;;3.98;77.22;98616.30;105453;1256;97953;-79
2024/03/03 04:26:17;;;;;;;30.00;14.50;;;;;;;3.97;77.28;98612.65;105703;1254;109988;-79
2024/03/03 04:28:45;;;;;;;27.20;15.00;;;;;;;3.96;77.33;98613.94;105420;1257;96733;-79
2024/03/03 04:31:13;;;;;;;32.70;16.10;;;;;;;3.96;77.30;98614.80;105646;1256;107633;-77
2024/03/03 04:33:41;;;;;;;27.00;15.10;;;;;;;3.97;77.52;98618.98;105531;1252;96591;-79
2024/03/03 04:36:12;;;;;;;27.60;15.00;;;;;;;3.98;77.26;98622.42;105433;1254;97184;-79
2024/03/03 04:38:40;;;;;;;23.50;14.30;;;;;;;3.99;77.42;98622.39;105545;1253;107795;-79
2024/03/03 04:41:15;;;;;;;26.80;15.20;;;;;;;3.98;77.29;98623.14;105632;1268;97530;-80
2024/03/03 04:43:45;;;;;;;24.60;13.90;;;;;;;3.95;77.53;98623.81;105345;1251;107604;-76
2024/03/03 04:46:13;;;;;;;26.60;15.10;;;;;;;3.93;77.22;98623.23;105391;1269;96578;-77
2024/03/03 04:48:42;;;;;;;30.20;15.80;;;;;;;3.87;77.40;98624.41;105373;1258;96850;-80
2024/03/03 04:51:09;;;;;;;27.30;14.80;;;;;;;3.83;77.36;98624.80;105606;1256;109456;-79
2024/03/03 04:53:40;;;;;;;28.60;15.00;;;;;;;3.79;77.18;98629.05;105363;1257;96876;-78
2024/03/03 04:56:08;;;;;;;25.60;15.20;;;;;;;3.79;77.20;98630.27;105354;1258;106846;-77
2024/03/03 04:58:36;;;;;;;28.60;15.40;;;;;;;3.81;77.51;98630.35;105201;1256;97832;-79
2024/03/03 05:01:04;;;;;;;23.70;14.20;;;;;;;3.80;77.53;98624.95;105686;1253;96588;-80
2024/03/03 05:03:32;;;;;;;32.70;15.60;;;;;;;3.79;77.47;98623.79;105659;1253;109604;-76
2024/03/03 05:06:00;;;;;;;24.00;14.10;;;;;;;3.81;77.57;98622.95;105507;1254;97555;-79
2024/03/03 05:08:28;;;;;;;28.70;14.70;;;;;;;3.83;77.56;98621.10;105690;1258;107238;-80
2024/03/03 05:10:56;;;;;;;24.80;14.60;;;;;;;3.85;77.29;98617.48;105919;1253;96584;-79
2024/03/03 05:13:24;;;;;;;27.40;15.60;;;;;;;3.88;77.74;98623.12;105450;1253;96538;-79
2024/03/03 05:15:52;;;;;;;27.40;15.30;;;;;;;3.91;77.66;98622.44;105557;1254;109790;-80
2024/03/03 05:18:21;;;;;;;25.30;15.30;;;;;;;3.92;77.55;98623.96;105476;1256;96675;-80
2024/03/03 05:20:49;;;;;;;27.70;15.40;;;;;;;3.92;77.58;98620.66;105652;1258;108419;-79
2024/03/03 05:23:18;;;;;;;30.40;15.60;;;;;;;3.91;77.49;98619.10;105590;1252;96606;-81
2024/03/03 05:25:46;;;;;;;28.60;15.90;;;;;;;3.93;77.72;98618.15;105437;1255;97525;-80
2024/03/03 05:28:14;;;;;;;30.20;16.40;;;;;;;3.95;77.70;98622.06;105579;1256;109322;-79
2024/03/03 05:30:42;;;;;;;27.60;16.40;;;;;;;3.97;77.50;98624.23;105302;1254;96583;-80
2024/03/03 05:33:11;;;;;;;28.60;15.10;;;;;;;3.99;77.77;98627.63;105151;1256;107190;-79
2024/03/03 05:35:40;;;;;;;28.30;16.10;;;;;;;4.00;77.65;98626.71;105362;1259;96696;-78
2024/03/03 05:38:07;;;;;;;30.60;15.50;;;;;;;4.02;77.74;98629.58;105305;1256;96772;-76
2024/03/03 05:40:35;;;;;;;31.60;15.10;;;;;;;4.06;77.75;98626.60;105250;1253;109468;-79
2024/03/03 05:43:03;;;;;;;33.30;16.60;;;;;;;4.09;77.78;98630.98;105564;1256;96608;-79
2024/03/03 05:45:31;;;;;;;25.20;16.00;;;;;;;4.10;77.67;98633.56;105546;1267;108351;-79
2024/03/03 05:48:00;;;;;;;29.30;16.80;;;;;;;4.11;77.77;98631.77;105432;1253;97893;-79
2024/03/03 05:50:28;;;;;;;26.70;16.10;;;;;;;4.12;77.69;98631.00;105748;1253;96613;-79
2024/03/03 05:52:56;;;;;;;30.50;16.50;;;;;;;4.13;77.71;98635.30;105172;1254;109166;-80
2024/03/03 05:55:23;;;;;;;30.40;18.00;;;;;;;4.15;77.82;98635.73;105249;1256;96505;-80
2024/03/03 05:57:51;;;;;;;40.90;24.00;;;;;;;4.17;77.74;98640.40;105378;1256;108260;-80
2024/03/03 06:00:19;;;;;;;33.60;19.50;;;;;;;4.16;77.67;98645.01;105689;1254;96690;-80
2024/03/03 06:02:47;;;;;;;34.70;19.80;;;;;;;4.14;77.59;98648.61;105576;1253;96528;-80
2024/03/03 06:05:15;;;;;;;32.50;18.40;;;;;;;4.15;77.65;98648.91;105936;1257;109647;-80
2024/03/03 06:07:42;;;;;;;27.20;16.70;;;;;;;4.16;77.72;98645.69;108399;1253;97959;-83
2024/03/03 06:10:10;;;;;;;34.40;17.90;;;;;;;4.20;77.80;98640.76;105421;1251;107678;-77
2024/03/03 06:12:39;;;;;;;28.20;15.50;;;;;;;4.23;77.58;98636.06;105746;1256;96615;-79
2024/03/03 06:15:07;;;;;;;29.60;15.50;;;;;;;4.23;77.58;98632.17;105755;1254;96691;-81
2024/03/03 06:17:35;;;;;;;33.70;17.90;;;;;;;4.26;77.73;98630.63;105631;1250;109993;-79
2024/03/03 06:20:03;;;;;;;36.80;18.40;;;;;;;4.31;77.84;98633.50;105711;1254;98011;-81
2024/03/03 06:22:31;;;;;;;35.80;17.10;;;;;;;4.37;77.99;98633.02;105619;1254;107350;-80
2024/03/03 06:24:58;;;;;;;78.80;35.70;;;;;;;4.45;77.97;98635.23;105314;1270;96744;-80
2024/03/03 06:27:26;;;;;;;71.30;32.30;;;;;;;4.50;78.00;98632.12;105563;1257;97438;-80
2024/03/03 06:29:54;;;;;;;58.30;28.00;;;;;;;4.57;78.05;98634.36;105734;1253;109945;-80
2024/03/03 06:32:22;;;;;;;50.60;23.00;;;;;;;4.64;78.02;98635.60;105516;1254;97547;-76
2024/03/03 06:34:50;;;;;;;43.70;21.30;;;;;;;4.70;78.08;98632.79;105536;1269;107352;-80
2024/03/03 06:37:18;;;;;;;32.30;18.10;;;;;;;4.76;77.99;98634.54;105727;1256;97427;-82
2024/03/03 06:39:48;;;;;;;32.40;18.20;;;;;;;4.82;78.05;98633.38;105598;1256;96512;-79
2024/03/03 06:42:16;;;;;;;33.20;17.90;;;;;;;4.86;78.07;98639.11;105636;1254;108984;-80
2024/03/03 06:44:44;;;;;;;32.50;18.10;;;;;;;4.90;78.17;98637.12;105612;1256;96590;-80
2024/03/03 06:47:12;;;;;;;28.10;16.90;;;;;;;4.97;78.07;98632.73;105609;1256;108193;-80
2024/03/03 06:49:40;;;;;;;32.10;17.30;;;;;;;5.03;78.20;98630.58;105422;1257;96664;-80
2024/03/03 06:52:08;;;;;;;30.40;17.50;;;;;;;5.09;78.12;98632.73;105702;1257;97808;-81
2024/03/03 06:54:36;;;;;;;32.70;18.80;;;;;;;5.16;78.23;98641.13;105623;1253;109970;-80
2024/03/03 06:57:04;;;;;;;34.60;17.90;;;;;;;5.24;78.07;98635.79;105444;1257;97544;-78
2024/03/03 06:59:32;;;;;;;34.70;19.20;;;;;;;5.30;78.24;98638.59;105501;1258;107142;-76
2024/03/03 07:02:00;;;;;;;37.70;19.70;;;;;;;5.36;78.19;98635.05;105881;1261;96591;-71
2024/03/03 07:04:29;;;;;;;32.30;18.50;;;;;;;5.42;78.41;98635.43;105325;1253;97049;-71
2024/03/03 07:06:57;;;;;;;36.80;18.50;;;;;;;5.49;78.35;98635.86;105369;1253;110465;-71
2024/03/03 07:09:25;;;;;;;35.00;20.10;;;;;;;5.56;78.31;98635.83;105359;1255;97822;-72
2024/03/03 07:11:55;;;;;;;34.00;18.50;;;;;;;5.63;78.35;98635.60;105422;1255;107285;-71
2024/03/03 07:14:25;;;;;;;35.70;18.50;;;;;;;5.70;78.18;98634.13;105760;1257;97207;-72
2024/03/03 07:16:54;;;;;;;33.70;18.80;;;;;;;5.77;78.25;98630.00;105419;1255;96600;-73
2024/03/03 07:19:21;;;;;;;31.50;18.90;;;;;;;5.85;78.20;98628.52;105328;1256;109436;-73
2024/03/03 07:21:50;;;;;;;33.50;18.90;;;;;;;5.92;78.50;98627.71;105464;1264;96597;-74
2024/03/03 07:24:18;;;;;;;36.80;20.10;;;;;;;6.01;78.42;98630.03;105679;1257;107642;-71
2024/03/03 07:26:46;;;;;;;31.00;18.30;;;;;;;6.08;78.35;98632.75;105704;1254;97927;-71
2024/03/03 07:29:15;;;;;;;31.60;17.50;;;;;;;6.15;78.35;98633.42;105815;1253;96607;-70
2024/03/03 07:31:43;;;;;;;36.30;18.00;;;;;;;6.20;78.42;98634.83;105556;1254;109815;-72
2024/03/03 07:34:11;;;;;;;31.80;18.40;;;;;;;6.28;78.41;98636.50;105547;1254;96690;-72
2024/03/03 07:36:38;;;;;;;37.90;20.20;;;;;;;6.34;78.47;98631.20;105567;1256;107490;-72
2024/03/03 07:39:07;;;;;;;34.80;20.50;;;;;;;6.40;78.33;98630.47;105693;1254;97956;-71
2024/03/03 07:41:36;;;;;;;32.70;18.20;;;;;;;6.46;78.43;98627.27;105753;1255;96579;-72
2024/03/03 07:44:06;;;;;;;30.90;18.50;;;;;;;6.52;78.55;98626.88;105804;1254;110707;-71
2024/03/03 07:46:35;;;;;;;30.40;17.30;;;;;;;6.60;78.51;98626.75;105740;1256;96697;-71
2024/03/03 07:49:03;;;;;;;34.10;19.00;;;;;;;6.68;78.47;98629.08;105769;1256;108155;-72
2024/03/03 07:51:31;;;;;;;39.30;21.40;;;;;;;6.75;78.63;98624.08;105693;1257;96511;-72
2024/03/03 07:53:59;;;;;;;31.80;18.30;;;;;;;6.80;78.55;98623.70;105482;1253;96594;-72
2024/03/03 07:56:27;;;;;;;35.10;19.70;;;;;;;6.86;78.66;98621.25;105626;1254;109626;-73
2024/03/03 07:58:55;;;;;;;36.30;20.00;;;;;;;6.92;78.58;98622.43;105518;1254;96717;-71
2024/03/03 08:01:23;;;;;;;34.50;20.00;;;;;;;6.97;78.51;98620.34;105699;1257;107587;-71
2024/03/03 08:03:51;;;;;;;37.30;20.40;;;;;;;7.01;78.49;98622.53;105671;1256;96609;-71
2024/03/03 08:06:18;;;;;;;30.90;18.30;;;;;;;7.08;78.63;98619.33;105323;1256;96583;-72
2024/03/03 08:08:46;;;;;;;33.10;18.70;;;;;;;7.16;78.69;98615.75;105477;1256;109426;-71
2024/03/03 08:11:15;;;;;;;34.30;18.20;;;;;;;7.25;78.75;98618.20;105555;1256;96623;-72
2024/03/03 08:13:43;;;;;;;34.40;17.20;;;;;;;7.30;78.58;98616.27;105702;1254;107669;-73
2024/03/03 08:16:10;;;;;;;34.70;20.10;;;;;;;7.37;78.85;98617.92;105391;1257;96613;-73
2024/03/03 08:18:38;;;;;;;33.80;18.70;;;;;;;7.45;78.86;98615.27;105751;1257;96576;-72
2024/03/03 08:21:06;;;;;;;36.40;19.90;;;;;;;7.54;78.76;98621.02;105545;1253;109258;-72
2024/03/03 08:23:34;;;;;;;30.20;17.60;;;;;;;7.61;78.74;98620.20;105378;1256;98477;-71
2024/03/03 08:26:02;;;;;;;33.90;18.30;;;;;;;7.68;78.72;98621.31;105537;1254;107618;-71
2024/03/03 08:28:34;;;;;;;31.90;18.40;;;;;;;7.76;78.83;98624.13;105706;1257;96659;-72
2024/03/03 08:31:02;;;;;;;31.50;18.10;;;;;;;7.84;78.63;98623.42;105735;1257;96601;-71
2024/03/03 08:33:30;;;;;;;30.90;18.20;;;;;;;7.88;78.70;98622.45;105754;1254;109826;-74
2024/03/03 08:35:58;;;;;;;36.60;20.60;;;;;;;7.90;78.59;98624.06;105628;1256;96503;-70
2024/03/03 08:38:26;;;;;;;32.50;17.50;;;;;;;7.92;78.68;98625.55;105659;1255;106692;-70
2024/03/03 08:40:54;;;;;;;33.70;19.80;;;;;;;7.96;78.74;98620.48;105864;1256;96680;-70
2024/03/03 08:43:22;;;;;;;33.10;19.30;;;;;;;7.98;78.53;98616.45;105620;1256;97414;-71
2024/03/03 08:45:50;;;;;;;37.50;21.50;;;;;;;7.99;78.62;98619.91;107760;1255;109037;-70
2024/03/03 08:48:18;;;;;;;33.70;18.00;;;;;;;7.99;78.50;98614.59;106194;1251;96568;-70
2024/03/03 08:50:47;;;;;;;34.90;19.40;;;;;;;8.02;78.55;98615.82;105729;1253;108259;-70
2024/03/03 08:53:14;;;;;;;36.10;18.60;;;;;;;8.05;78.52;98619.31;105350;1256;97124;-71
2024/03/03 08:55:43;;;;;;;37.90;20.40;;;;;;;8.08;78.58;98618.26;105389;1256;96854;-70
2024/03/03 08:58:11;;;;;;;41.20;21.80;;;;;;;8.13;78.60;98616.12;105637;1254;109988;-70
2024/03/03 09:00:39;;;;;;;36.30;20.90;;;;;;;8.18;78.65;98617.04;105718;1255;97509;-70
2024/03/03 09:03:07;;;;;;;39.20;21.00;;;;;;;8.21;78.56;98614.36;105850;1267;107634;-70
2024/03/03 09:05:35;;;;;;;36.90;19.90;;;;;;;8.24;78.44;98615.02;105303;1256;96571;-69
2024/03/03 09:08:03;;;;;;;31.70;18.90;;;;;;;8.30;78.67;98611.10;105565;1253;96607;-70
2024/03/03 09:10:31;;;;;;;32.40;18.20;;;;;;;8.39;78.90;98609.71;105728;1254;110609;-70
2024/03/03 09:12:59;;;;;;;39.60;19.30;;;;;;;8.51;78.83;98612.45;105546;1272;96573;-69
2024/03/03 09:15:27;;;;;;;34.50;17.70;;;;;;;8.61;78.73;98610.47;105524;1257;107376;-71
2024/03/03 09:17:56;;;;;;;33.80;19.70;;;;;;;8.70;78.72;98610.75;105469;1254;96610;-71
2024/03/03 09:20:24;;;;;;;32.50;18.60;;;;;;;8.77;78.75;98608.98;105527;1254;96515;-70
2024/03/03 09:22:52;;;;;;;29.60;17.00;;;;;;;8.88;78.80;98603.42;105659;1251;109918;-71
2024/03/03 09:25:20;;;;;;;36.80;20.10;;;;;;;8.98;78.83;98600.23;105295;1256;96702;-69
2024/03/03 09:27:48;;;;;;;36.70;19.60;;;;;;;9.04;78.58;98602.42;105223;1267;107371;-71
2024/03/03 09:30:16;;;;;;;34.70;18.80;;;;;;;9.08;78.56;98597.71;105403;1254;96571;-70
2024/03/03 09:32:44;;;;;;;32.00;17.80;;;;;;;9.13;78.65;98600.59;105516;1251;96578;-69
2024/03/03 09:35:13;;;;;;;34.30;19.30;;;;;;;9.18;78.52;98599.30;105676;1256;109586;-70
2024/03/03 09:37:41;;;;;;;32.20;19.00;;;;;;;9.24;78.48;98598.27;105574;1256;96590;-70
2024/03/03 09:40:16;;;;;;;33.40;18.50;;;;;;;9.27;78.35;98599.71;105483;1255;107259;-70
2024/03/03 09:42:45;;;;;;;31.80;18.40;;;;;;;9.30;78.35;98598.05;105411;1253;96647;-70
2024/03/03 09:45:19;;;;;;;30.70;17.90;;;;;;;9.33;78.28;98597.16;105548;1256;97407;-70
2024/03/03 09:47:48;;;;;;;35.20;19.20;;;;;;;9.33;78.23;98591.14;105372;1252;109894;-70
2024/03/03 09:50:19;;;;;;;34.80;20.00;;;;;;;9.33;78.24;98591.85;105611;1255;96593;-69
2024/03/03 09:52:50;;;;;;;33.70;17.90;;;;;;;9.34;78.06;98592.30;105546;1257;107807;-69
2024/03/03 09:55:19;;;;;;;35.60;19.20;;;;;;;9.35;78.19;98588.10;105489;1255;96577;-70
2024/03/03 09:57:47;;;;;;;29.80;19.20;;;;;;;9.38;78.22;98586.09;105654;1256;96616;-70
2024/03/03 10:00:15;;;;;;;30.70;18.10;;;;;;;9.45;78.16;98585.80;105543;1256;109972;-71
2024/03/03 10:02:43;;;;;;;30.20;19.30;;;;;;;9.52;78.30;98584.20;105657;1255;97826;-71
2024/03/03 10:05:14;;;;;;;31.60;18.40;;;;;;;9.60;78.14;98583.28;105608;1255;107534;-70
2024/03/03 10:07:47;;;;;;;30.80;18.30;;;;;;;9.64;78.06;98581.20;105507;1256;96590;-71
2024/03/03 10:10:19;;;;;;;32.80;17.40;;;;;;;9.67;78.15;98580.93;105484;1255;97626;-69
2024/03/03 10:12:48;;;;;;;33.50;20.10;;;;;;;9.70;77.99;98575.41;105492;1255;109935;-70
2024/03/03 10:15:17;;;;;;;30.90;18.30;;;;;;;9.74;77.96;98572.98;105552;1256;96565;-70
2024/03/03 10:17:45;;;;;;;32.40;19.70;;;;;;;9.78;77.94;98573.95;105790;1254;106036;-69
2024/03/03 10:20:13;;;;;;;30.40;18.30;;;;;;;9.84;78.02;98576.46;105706;1257;96615;-70
2024/03/03 10:22:43;;;;;;;32.10;18.30;;;;;;;9.92;78.04;98577.80;105669;1253;96602;-69
2024/03/03 10:25:16;;;;;;;26.40;17.20;;;;;;;9.99;77.96;98575.09;105518;1255;109659;-69
2024/03/03 10:27:45;;;;;;;30.30;17.30;;;;;;;10.04;77.81;98575.09;105566;1259;96677;-70
2024/03/03 10:30:17;;;;;;;31.40;17.70;;;;;;;10.06;77.82;98574.73;105578;1262;107633;-71
2024/03/03 10:32:47;;;;;;;30.10;19.20;;;;;;;10.09;77.77;98572.79;105462;1257;97959;-71
2024/03/03 10:35:18;;;;;;;33.10;19.40;;;;;;;10.13;77.79;98564.67;105405;1254;96591;-69
2024/03/03 10:37:53;;;;;;;28.60;17.70;;;;;;;10.19;77.79;98564.67;105545;1254;109882;-71
2024/03/03 10:40:21;;;;;;;32.70;18.50;;;;;;;10.23;77.72;98559.83;105538;1256;96677;-71
2024/03/03 10:42:50;;;;;;;27.80;17.90;;;;;;;10.27;77.69;98558.79;105474;1257;107608;-71
2024/03/03 10:45:18;;;;;;;37.00;20.30;;;;;;;10.30;77.57;98554.67;105441;1256;96603;-71
2024/03/03 10:47:49;;;;;;;34.50;19.50;;;;;;;10.31;77.69;98551.94;105677;1254;96574;-70
2024/03/03 10:50:18;;;;;;;31.60;18.90;;;;;;;10.30;77.43;98550.02;105677;1255;109458;-71
2024/03/03 10:52:51;;;;;;;34.30;20.20;;;;;;;10.32;77.45;98545.30;105567;1257;97848;-70
2024/03/03 10:55:19;;;;;;;30.90;18.90;;;;;;;10.33;77.44;98540.41;105584;1257;106756;-70
2024/03/03 10:57:49;;;;;;;26.90;16.30;;;;;;;10.38;77.42;98538.41;105517;1256;96647;-70
2024/03/03 11:03:38;;;;;;;31.60;18.50;;;;;;;10.54;77.35;98536.83;102324;1293;636080;-69
2024/03/03 11:06:07;;;;;;;31.30;19.10;;;;;;;10.55;77.26;98539.56;104663;1269;95262;-70
2024/03/03 11:08:35;;;;;;;32.70;18.60;;;;;;;10.58;77.22;98531.70;104778;1272;94319;-70
2024/03/03 11:11:06;;;;;;;33.20;18.40;;;;;;;10.64;77.22;98528.40;104500;1270;107044;-71
2024/03/03 11:13:41;;;;;;;33.00;18.40;;;;;;;10.69;77.17;98526.37;104619;1272;96691;-72
2024/03/03 11:16:12;;;;;;;29.10;17.00;;;;;;;10.71;77.04;98523.52;103582;1263;2379490;-70
2024/03/03 11:18:48;;;;;;;34.80;19.20;;;;;;;10.74;76.97;98518.03;105219;1260;94309;-70
2024/03/03 11:21:27;;;;;;;33.40;18.70;;;;;;;10.72;76.97;98517.95;105510;1262;94328;-71
2024/03/03 11:24:05;;;;;;;34.90;19.20;;;;;;;10.73;76.92;98513.63;105250;1261;106081;-72